Time;durP1;ratioP1;P1;durP2;ratioP2;P2;SDS_P1;SDS_P2;PMS_P1;PMS_P2;Temp;Humidity;BMP_temperature;BMP_pressure;BME280_temperature;BME280_humidity;BME280_pressure;Samples;Min_cycle;Max_cycle;Signal;HPM_P1;HPM_P2
2022/04/11 00:02:07;;;;;;;5.78;2.78;;;5.70;1.00;;;;;;6180616;22;20723;-80
2022/04/11 00:04:38;;;;;;;3.00;1.90;;;5.70;1.00;;;;;;6182665;22;20248;-78
2022/04/11 00:07:05;;;;;;;5.35;1.95;;;5.70;1.00;;;;;;6176009;22;20213;-80
2022/04/11 00:09:37;;;;;;;4.10;1.95;;;5.70;1.00;;;;;;6197323;22;20210;-81
2022/04/11 00:12:05;;;;;;;4.90;2.10;;;5.70;1.00;;;;;;6210690;22;20217;-80
2022/04/11 00:14:35;;;;;;;4.75;2.20;;;5.70;1.00;;;;;;6139539;22;20210;-80
2022/04/11 00:17:23;;;;;;;7.28;2.13;;;5.60;1.00;;;;;;6196035;22;20352;-81
2022/04/11 00:19:56;;;;;;;7.30;2.00;;;5.60;1.00;;;;;;6154585;22;20359;-81
2022/04/11 00:22:23;;;;;;;5.13;1.85;;;5.60;1.00;;;;;;6235833;22;20288;-79
2022/04/11 00:24:55;;;;;;;5.35;2.45;;;5.60;1.00;;;;;;6244196;22;20220;-79
2022/04/11 00:27:21;;;;;;;7.00;2.92;;;5.60;1.00;;;;;;6225072;22;20217;-78
2022/04/11 00:29:48;;;;;;;7.65;3.08;;;5.50;1.00;;;;;;6225680;22;20265;-81
2022/04/11 00:32:16;;;;;;;4.50;2.38;;;5.50;1.00;;;;;;6247174;22;20208;-80
2022/04/11 00:34:45;;;;;;;4.85;2.00;;;5.50;1.00;;;;;;6248392;22;20199;-81
2022/04/11 00:37:13;;;;;;;5.50;2.00;;;5.50;1.00;;;;;;6246430;22;20267;-80
2022/04/11 00:39:45;;;;;;;3.53;2.20;;;5.40;1.00;;;;;;6237733;22;20209;-81
2022/04/11 00:42:15;;;;;;;5.35;2.28;;;5.40;1.00;;;;;;6237336;22;20201;-80
2022/04/11 00:44:42;;;;;;;4.20;1.73;;;5.40;1.00;;;;;;6221010;22;20209;-80
2022/04/11 00:47:11;;;;;;;4.32;2.10;;;5.30;1.00;;;;;;6265286;22;20227;-80
2022/04/11 00:49:38;;;;;;;4.55;2.60;;;5.30;1.00;;;;;;6262372;22;20223;-80
2022/04/11 00:52:06;;;;;;;3.97;1.90;;;5.20;1.00;;;;;;6256110;22;20213;-80
2022/04/11 00:54:35;;;;;;;4.88;2.20;;;5.20;1.00;;;;;;6247630;22;20284;-79
2022/04/11 00:57:03;;;;;;;3.70;2.00;;;5.20;1.00;;;;;;6249225;22;20263;-79
2022/04/11 00:59:34;;;;;;;7.32;2.08;;;5.10;1.00;;;;;;6248136;22;20241;-79
2022/04/11 01:02:05;;;;;;;3.45;1.98;;;5.10;1.00;;;;;;6245867;22;20267;-80
2022/04/11 01:04:35;;;;;;;4.93;2.67;;;5.00;1.00;;;;;;6247495;22;20352;-79
2022/04/11 01:07:01;;;;;;;5.55;1.90;;;5.00;1.00;;;;;;6248115;22;20213;-80
2022/04/11 01:09:34;;;;;;;6.80;2.20;;;5.00;1.00;;;;;;6233284;22;20292;-80
2022/04/11 01:12:06;;;;;;;7.57;2.28;;;4.90;1.00;;;;;;6253902;22;20220;-79
2022/04/11 01:14:34;;;;;;;4.18;1.63;;;4.90;1.00;;;;;;6242199;22;20221;-81
2022/04/11 01:17:01;;;;;;;4.35;2.47;;;4.90;1.00;;;;;;6263674;22;20213;-78
2022/04/11 01:19:28;;;;;;;5.18;2.50;;;4.90;1.00;;;;;;6261478;22;20212;-80
2022/04/11 01:21:56;;;;;;;10.85;2.50;;;4.80;1.00;;;;;;6266994;22;20201;-80
2022/04/11 01:24:23;;;;;;;6.47;2.63;;;4.80;1.00;;;;;;6261397;22;20201;-78
2022/04/11 01:26:57;;;;;;;4.72;2.13;;;4.80;1.00;;;;;;6258905;22;21836;-80
2022/04/11 01:29:23;;;;;;;2.70;2.00;;;4.70;1.00;;;;;;6252418;22;20213;-80
2022/04/11 01:31:54;;;;;;;3.83;1.90;;;4.60;1.00;;;;;;6253781;22;20236;-79
2022/04/11 01:34:21;;;;;;;8.25;2.70;;;4.60;1.00;;;;;;6266074;22;20205;-80
2022/04/11 01:36:48;;;;;;;4.25;2.45;;;4.60;1.00;;;;;;6266203;22;20275;-80
2022/04/11 01:39:18;;;;;;;6.13;2.88;;;4.60;1.00;;;;;;6263603;22;20216;-80
2022/04/11 01:41:45;;;;;;;4.53;2.20;;;4.50;1.00;;;;;;6266825;22;20396;-80
2022/04/11 01:44:13;;;;;;;4.53;2.30;;;4.50;1.00;;;;;;6268382;22;20217;-77
2022/04/11 01:46:50;;;;;;;8.20;3.13;;;4.40;1.00;;;;;;6176163;22;20200;-79
2022/04/11 01:49:17;;;;;;;6.97;2.45;;;4.40;1.00;;;;;;6146453;23;20215;-79
2022/04/11 01:51:45;;;;;;;8.02;2.92;;;4.40;1.00;;;;;;6167505;23;20221;-80
2022/04/11 01:54:18;;;;;;;7.10;2.35;;;4.40;1.00;;;;;;6166141;23;20271;-78
2022/04/11 01:56:45;;;;;;;6.97;2.47;;;4.40;1.00;;;;;;6225101;22;20225;-81
2022/04/11 01:59:16;;;;;;;4.03;1.98;;;4.40;1.00;;;;;;6222803;22;20210;-79
2022/04/11 02:01:43;;;;;;;8.18;2.45;;;4.40;1.00;;;;;;6216935;22;20306;-81
2022/04/11 02:04:13;;;;;;;4.75;2.17;;;4.40;1.00;;;;;;6217550;22;20213;-80
2022/04/11 02:06:43;;;;;;;7.68;2.40;;;4.40;1.00;;;;;;6218486;22;20273;-78
2022/04/11 02:09:35;;;;;;;4.10;2.38;;;4.30;1.00;;;;;;6217719;22;20269;-78
2022/04/11 02:12:01;;;;;;;5.68;2.72;;;4.30;1.00;;;;;;6223728;22;20273;-81
2022/04/11 02:14:28;;;;;;;5.00;2.00;;;4.30;1.00;;;;;;6228013;22;20220;-78
2022/04/11 02:16:55;;;;;;;12.90;2.92;;;4.30;1.00;;;;;;6252772;22;20212;-78
2022/04/11 02:19:24;;;;;;;6.28;2.78;;;4.30;1.00;;;;;;6249753;22;21565;-78
2022/04/11 02:21:55;;;;;;;6.22;2.80;;;4.20;1.00;;;;;;6249107;22;20213;-79
2022/04/11 02:24:22;;;;;;;4.38;2.53;;;4.30;1.00;;;;;;6246296;22;20283;-79
2022/04/11 02:26:53;;;;;;;4.68;2.40;;;4.20;1.00;;;;;;6247193;22;20381;-79
2022/04/11 02:29:27;;;;;;;4.07;2.28;;;4.10;1.00;;;;;;6244787;22;20236;-78
2022/04/11 02:31:58;;;;;;;4.22;2.10;;;4.20;1.00;;;;;;6244476;22;20224;-79
2022/04/11 02:34:25;;;;;;;9.07;2.47;;;4.10;1.00;;;;;;6245302;22;21584;-81
2022/04/11 02:36:55;;;;;;;7.15;2.88;;;4.10;1.00;;;;;;6246240;22;20213;-81
2022/04/11 02:39:23;;;;;;;7.25;2.22;;;4.10;1.00;;;;;;6246100;22;20209;-79
2022/04/11 02:41:56;;;;;;;6.70;2.58;;;4.10;1.00;;;;;;6242611;22;21116;-80
2022/04/11 02:44:23;;;;;;;7.40;2.60;;;4.10;1.00;;;;;;6242417;22;20236;-79
2022/04/11 02:46:51;;;;;;;8.52;2.40;;;4.10;1.00;;;;;;6243461;22;20869;-80
2022/04/11 02:49:18;;;;;;;3.65;2.20;;;4.00;1.00;;;;;;6246064;22;20209;-80
2022/04/11 02:51:45;;;;;;;4.60;2.25;;;4.10;1.00;;;;;;6244774;22;20208;-78
2022/04/11 02:54:11;;;;;;;5.50;2.65;;;4.00;1.00;;;;;;6245100;22;20220;-80
2022/04/11 02:56:39;;;;;;;9.38;3.83;;;4.00;1.00;;;;;;6234386;22;20260;-80
2022/04/11 02:59:06;;;;;;;3.38;2.53;;;4.00;1.00;;;;;;6235863;22;20318;-80
2022/04/11 03:01:32;;;;;;;9.05;2.38;;;4.00;1.00;;;;;;6231849;22;20654;-80
2022/04/11 03:04:00;;;;;;;5.18;2.67;;;4.00;1.00;;;;;;6238747;22;20217;-80
2022/04/11 03:06:27;;;;;;;7.07;2.72;;;4.00;1.00;;;;;;6243654;22;20219;-80
2022/04/11 03:08:59;;;;;;;6.05;2.67;;;3.90;1.00;;;;;;6247853;22;20205;-79
2022/04/11 03:11:25;;;;;;;7.35;3.35;;;3.90;1.00;;;;;;6247167;22;20267;-80
2022/04/11 03:13:57;;;;;;;12.70;3.08;;;3.90;1.00;;;;;;6248587;22;20209;-80
2022/04/11 03:16:23;;;;;;;7.70;3.75;;;3.90;1.00;;;;;;6248128;22;20217;-80
2022/04/11 03:18:51;;;;;;;7.90;2.25;;;3.90;1.00;;;;;;6249832;22;20216;-79
2022/04/11 03:21:19;;;;;;;6.75;2.60;;;3.90;1.00;;;;;;6248353;22;20239;-80
2022/04/11 03:23:46;;;;;;;6.40;3.13;;;3.90;1.00;;;;;;6247808;22;20942;-79
2022/04/11 03:26:15;;;;;;;5.13;2.95;;;3.80;1.00;;;;;;6244542;22;20205;-79
2022/04/11 03:28:44;;;;;;;12.98;3.05;;;3.80;1.00;;;;;;6243795;22;20364;-79
2022/04/11 03:31:15;;;;;;;4.28;2.20;;;3.90;1.00;;;;;;6246891;22;21074;-77
2022/04/11 03:33:45;;;;;;;4.05;2.42;;;3.90;1.00;;;;;;6245682;22;21451;-79
2022/04/11 03:39:06;;;;;;;4.78;2.10;;;3.80;1.00;;;;;;6172166;23;20688;-81
2022/04/11 03:41:38;;;;;;;7.97;3.25;;;3.80;1.00;;;;;;6207807;22;20320;-78
2022/04/11 03:44:06;;;;;;;9.90;2.88;;;3.80;1.00;;;;;;6217088;22;20202;-78
2022/04/11 03:46:37;;;;;;;7.05;3.08;;;3.80;1.00;;;;;;6216052;22;20210;-77
2022/04/11 03:49:06;;;;;;;4.40;2.40;;;3.80;1.00;;;;;;6217777;22;20264;-79
2022/04/11 03:51:46;;;;;;;;;;;;;;;;;;;;;
2022/04/11 03:54:16;;;;;;;11.45;3.90;;;3.80;1.00;;;;;;6200889;22;40668;-79
2022/04/11 03:56:46;;;;;;;5.32;3.25;;;3.80;1.00;;;;;;6208663;22;20213;-80
2022/04/11 03:59:18;;;;;;;5.90;3.00;;;3.80;1.00;;;;;;6214262;22;21065;-79
2022/04/11 04:01:57;;;;;;;6.22;3.08;;;3.80;1.00;;;;;;6209464;22;20213;-80
2022/04/11 04:04:28;;;;;;;5.00;3.00;;;3.70;1.00;;;;;;6217173;22;20208;-80
2022/04/11 04:06:55;;;;;;;5.90;3.20;;;3.70;1.00;;;;;;6215812;22;20210;-80
2022/04/11 04:09:30;;;;;;;6.75;4.45;;;3.70;1.00;;;;;;6216409;22;20213;-81
2022/04/11 04:11:58;;;;;;;6.80;3.80;;;3.60;1.00;;;;;;6196282;22;20979;-80
2022/04/11 04:14:29;;;;;;;4.53;2.83;;;3.60;1.00;;;;;;6257544;22;20189;-78
2022/04/11 04:16:57;;;;;;;6.57;3.67;;;3.60;1.00;;;;;;6237121;22;20268;-79
2022/04/11 04:19:27;;;;;;;4.40;2.72;;;3.60;1.00;;;;;;6248132;22;20336;-78
2022/04/11 04:21:56;;;;;;;5.35;3.47;;;3.50;1.00;;;;;;6249331;22;20213;-79
2022/04/11 04:24:27;;;;;;;3.95;2.67;;;3.50;1.00;;;;;;6244693;22;20216;-78
2022/04/11 04:26:58;;;;;;;6.88;3.65;;;3.50;1.00;;;;;;6246633;22;20209;-78
2022/04/11 04:29:26;;;;;;;8.00;4.20;;;3.40;1.00;;;;;;6249541;22;20220;-79
2022/04/11 04:32:05;;;;;;;9.90;3.17;;;3.40;1.00;;;;;;6245085;22;20221;-77
2022/04/11 04:34:38;;;;;;;6.75;3.20;;;3.40;1.00;;;;;;6241880;22;20199;-78
2022/04/11 04:37:08;;;;;;;7.45;3.20;;;3.40;1.00;;;;;;6245503;22;21076;-79
2022/04/11 04:39:38;;;;;;;7.57;4.00;;;3.40;1.00;;;;;;6246214;22;20201;-79
2022/04/11 04:42:07;;;;;;;7.55;4.45;;;3.40;1.00;;;;;;6228627;22;20220;-79
2022/04/11 04:44:45;;;;;;;8.40;3.83;;;3.40;1.00;;;;;;6231331;22;20200;-79
2022/04/11 04:47:22;;;;;;;8.75;5.30;;;3.40;1.00;;;;;;6266815;22;20256;-78
2022/04/11 04:49:49;;;;;;;7.55;3.53;;;3.40;1.00;;;;;;6245847;22;20216;-80
2022/04/11 04:52:19;;;;;;;7.10;3.75;;;3.40;1.00;;;;;;6245981;22;20219;-80
2022/04/11 04:54:46;;;;;;;6.22;3.63;;;3.40;1.00;;;;;;6241192;22;20338;-78
2022/04/11 04:57:29;;;;;;;;;;;;;;;;;;;;;
2022/04/11 04:59:56;;;;;;;7.20;4.25;;;3.40;1.00;;;;;;6252441;22;50826;-78
2022/04/11 05:02:36;;;;;;;7.63;4.13;;;3.40;1.00;;;;;;6254840;22;20232;-81
2022/04/11 05:05:09;;;;;;;5.88;3.70;;;3.40;1.00;;;;;;6243694;22;20264;-79
2022/04/11 05:07:39;;;;;;;7.70;4.60;;;3.40;1.00;;;;;;6255050;22;20216;-77
2022/04/11 05:10:15;;;;;;;7.63;4.50;;;3.40;1.00;;;;;;6252084;22;20641;-77
2022/04/11 05:12:48;;;;;;;6.32;4.15;;;3.30;1.00;;;;;;6247392;22;20205;-79
2022/04/11 05:15:18;;;;;;;10.18;5.65;;;3.30;1.00;;;;;;6245161;22;20255;-78
2022/04/11 05:17:57;;;;;;;7.30;3.90;;;3.30;1.00;;;;;;6249723;22;20201;-77
2022/04/11 05:20:27;;;;;;;6.68;4.32;;;3.30;1.00;;;;;;6247794;22;20525;-78
2022/04/11 05:22:58;;;;;;;9.15;5.18;;;3.30;1.00;;;;;;6246181;22;20209;-79
2022/04/11 05:25:27;;;;;;;9.27;5.68;;;3.30;1.00;;;;;;6249763;22;20223;-81
2022/04/11 05:27:56;;;;;;;8.85;5.18;;;3.30;1.00;;;;;;6235027;22;20213;-78
2022/04/11 05:30:38;;;;;;;12.65;5.45;;;3.40;1.00;;;;;;6262484;22;20239;-78
2022/04/11 05:33:08;;;;;;;11.18;5.40;;;3.40;1.00;;;;;;6243027;22;20263;-80
2022/04/11 05:35:38;;;;;;;11.85;6.03;;;3.50;1.00;;;;;;6235936;22;20216;-79
2022/04/11 05:38:08;;;;;;;13.80;6.07;;;3.60;1.00;;;;;;6254538;22;20193;-82
2022/04/11 05:40:37;;;;;;;9.57;4.90;;;3.60;1.00;;;;;;6242548;22;20271;-78
2022/04/11 05:43:08;;;;;;;9.20;5.68;;;3.70;1.00;;;;;;6248475;22;20213;-80
2022/04/11 05:45:36;;;;;;;10.48;6.00;;;3.80;1.00;;;;;;6244671;22;20211;-78
2022/04/11 05:48:08;;;;;;;9.18;5.10;;;3.90;1.00;;;;;;6246764;22;20213;-81
2022/04/11 05:50:36;;;;;;;11.15;4.75;;;4.00;1.00;;;;;;6247725;22;20399;-78
2022/04/11 05:53:07;;;;;;;6.00;5.10;;;4.00;1.00;;;;;;6248750;22;20219;-80
2022/04/11 05:55:37;;;;;;;11.10;6.93;;;4.20;1.00;;;;;;6230695;22;20192;-79
2022/04/11 05:58:08;;;;;;;8.73;4.80;;;4.30;1.00;;;;;;6211727;22;20768;-82
2022/04/11 06:00:37;;;;;;;10.93;6.47;;;4.40;1.00;;;;;;6235654;22;20578;-80
2022/04/11 06:03:04;;;;;;;8.07;4.80;;;4.50;1.00;;;;;;6244784;22;20205;-79
2022/04/11 06:05:41;;;;;;;6.47;4.50;;;4.70;1.00;;;;;;6242215;22;21080;-79
2022/04/11 06:08:08;;;;;;;7.47;5.10;;;4.80;1.00;;;;;;6239111;22;20263;-77
2022/04/11 06:10:36;;;;;;;8.50;4.88;;;4.90;1.00;;;;;;6244832;22;20278;-78
2022/04/11 06:13:08;;;;;;;8.57;5.10;;;5.00;1.00;;;;;;6246908;22;20219;-77
2022/04/11 06:15:36;;;;;;;6.50;4.65;;;5.20;1.00;;;;;;6245019;22;20217;-77
2022/04/11 06:18:09;;;;;;;9.10;5.40;;;5.30;1.00;;;;;;6243826;22;20408;-80
2022/04/11 06:20:41;;;;;;;9.95;5.07;;;5.40;1.00;;;;;;6248470;22;20201;-81
2022/04/11 06:23:07;;;;;;;7.75;4.72;;;5.50;1.00;;;;;;6249007;22;20219;-78
2022/04/11 06:25:36;;;;;;;7.10;4.60;;;5.60;1.00;;;;;;6233647;22;20204;-79
2022/04/11 06:28:06;;;;;;;7.00;3.67;;;5.70;1.00;;;;;;6244870;22;20201;-78
2022/04/11 06:30:37;;;;;;;8.45;3.63;;;5.80;1.00;;;;;;6244734;22;20213;-79
2022/04/11 06:33:06;;;;;;;9.48;4.60;;;5.80;1.00;;;;;;6253326;22;20220;-79
2022/04/11 06:35:45;;;;;;;7.55;4.53;;;5.90;1.00;;;;;;6244319;22;20662;-78
2022/04/11 06:38:16;;;;;;;12.68;4.68;;;6.10;1.00;;;;;;6260515;22;20193;-77
2022/04/11 06:40:49;;;;;;;8.30;4.75;;;6.20;1.00;;;;;;6240364;22;20271;-78
2022/04/11 06:43:29;;;;;;;9.52;3.55;;;6.20;1.00;;;;;;6243754;22;20201;-80
2022/04/11 06:46:09;;;;;;;6.93;3.70;;;6.30;1.00;;;;;;6198429;22;20221;-78
2022/04/11 06:48:39;;;;;;;5.35;2.90;;;6.30;1.00;;;;;;6242373;22;20210;-77
2022/04/11 06:51:19;;;;;;;4.88;3.00;;;6.40;1.00;;;;;;6243230;22;20572;-78
2022/04/11 06:53:50;;;;;;;5.85;2.70;;;6.50;1.00;;;;;;6247866;22;20212;-82
2022/04/11 06:56:18;;;;;;;5.35;3.60;;;6.60;1.00;;;;;;6246669;22;20217;-77
2022/04/11 06:58:48;;;;;;;6.00;2.97;;;6.70;1.00;;;;;;6246480;22;20213;-78
2022/04/11 07:01:18;;;;;;;6.80;2.90;;;6.80;1.00;;;;;;6245353;22;20252;-79
2022/04/11 07:07:50;;;;;;;3.80;2.53;;;7.00;1.00;;;;;;6233398;22;20193;-78
2022/04/11 07:10:43;;;;;;;5.50;2.38;;;7.10;1.00;;;;;;6067023;23;20306;-81
2022/04/11 07:13:20;;;;;;;6.43;2.22;;;7.20;1.00;;;;;;6219656;22;20209;-79
2022/04/11 07:15:50;;;;;;;3.88;2.22;;;7.20;1.00;;;;;;6176982;23;20211;-78
2022/04/11 07:18:35;;;;;;;;;;;;;;;;;;;;;
2022/04/11 07:24:12;;;;;;;5.25;2.50;;;7.50;1.00;;;;;;6163674;22;21370;-77
2022/04/11 07:26:41;;;;;;;5.90;2.53;;;7.60;1.00;;;;;;6215048;22;20210;-76
2022/04/11 07:29:20;;;;;;;5.72;2.17;;;7.80;1.00;;;;;;6208693;22;20225;-77
2022/04/11 07:31:49;;;;;;;4.35;2.50;;;7.90;1.00;;;;;;6204786;22;20388;-78
2022/04/11 07:34:17;;;;;;;4.03;2.38;;;8.10;1.00;;;;;;6225282;22;20245;-77
2022/04/11 07:36:44;;;;;;;6.50;2.40;;;8.30;1.00;;;;;;6216132;22;20206;-80
2022/04/11 07:39:13;;;;;;;4.28;2.22;;;8.30;1.00;;;;;;6214465;22;20222;-79
2022/04/11 07:41:41;;;;;;;8.05;2.67;;;8.30;1.00;;;;;;6211088;22;20541;-79
2022/04/11 07:44:09;;;;;;;3.47;1.88;;;8.40;1.00;;;;;;6211607;22;20198;-79
2022/04/11 07:46:38;;;;;;;5.47;2.08;;;8.50;1.00;;;;;;6213105;22;20210;-77
2022/04/11 07:49:10;;;;;;;4.07;2.50;;;8.60;1.00;;;;;;6215123;22;20257;-81
2022/04/11 07:51:41;;;;;;;3.85;1.80;;;8.70;1.00;;;;;;6215082;22;20210;-77
2022/04/11 07:54:10;;;;;;;3.95;2.25;;;8.70;1.00;;;;;;6213933;22;20221;-79
2022/04/11 07:56:43;;;;;;;3.45;2.15;;;8.80;1.00;;;;;;6212953;22;20276;-78
2022/04/11 07:59:09;;;;;;;4.00;2.15;;;8.90;1.00;;;;;;6215629;22;20248;-79
2022/04/11 08:01:41;;;;;;;3.67;2.00;;;8.90;1.00;;;;;;6202710;22;20218;-80
2022/04/11 08:04:10;;;;;;;3.55;2.10;;;8.90;1.00;;;;;;6217626;22;20206;-78
2022/04/11 08:06:50;;;;;;;4.70;2.30;;;9.00;1.00;;;;;;6212949;22;20209;-78
2022/04/11 08:09:30;;;;;;;3.73;2.00;;;9.10;1.00;;;;;;6210584;22;20570;-79
2022/04/11 08:11:59;;;;;;;7.00;1.60;;;9.20;1.00;;;;;;6250215;22;20405;-77
2022/04/11 08:14:32;;;;;;;5.65;2.20;;;9.40;1.00;;;;;;6242416;22;20384;-80
2022/04/11 08:17:02;;;;;;;4.05;1.63;;;9.50;1.00;;;;;;6243321;22;20223;-77
2022/04/11 08:19:29;;;;;;;6.10;1.70;;;9.60;1.00;;;;;;6245884;22;20233;-78
2022/04/11 08:21:59;;;;;;;3.38;1.90;;;9.50;1.00;;;;;;6246299;22;20228;-80
2022/04/11 08:24:30;;;;;;;3.95;2.00;;;9.50;1.00;;;;;;6244994;22;20213;-77
2022/04/11 08:27:02;;;;;;;4.95;1.85;;;9.50;1.00;;;;;;6246024;22;20205;-79
2022/04/11 08:29:31;;;;;;;26.37;6.57;;;9.60;1.00;;;;;;6248980;22;20227;-80
2022/04/11 08:32:00;;;;;;;3.10;1.67;;;9.70;1.00;;;;;;6246942;22;20412;-80
2022/04/11 08:34:32;;;;;;;2.85;1.77;;;10.00;1.00;;;;;;6244605;22;20213;-79
2022/04/11 08:36:58;;;;;;;4.70;1.83;;;10.10;1.00;;;;;;6255320;22;20201;-77
2022/04/11 08:39:29;;;;;;;2.30;1.50;;;10.30;1.00;;;;;;6244439;22;20205;-80
2022/04/11 08:42:01;;;;;;;3.67;2.10;;;10.40;1.00;;;;;;6228048;22;20210;-77
2022/04/11 08:44:32;;;;;;;4.10;1.47;;;10.50;1.00;;;;;;6217256;22;20197;-80
2022/04/11 08:47:02;;;;;;;4.73;1.53;;;10.60;1.00;;;;;;6215759;23;22083;-80
2022/04/11 08:49:30;;;;;;;4.10;1.63;;;10.60;1.00;;;;;;6221202;22;20378;-78
2022/04/11 08:52:00;;;;;;;4.93;1.77;;;10.70;1.00;;;;;;6221482;22;20413;-80
2022/04/11 08:54:30;;;;;;;2.57;1.70;;;10.70;1.00;;;;;;6226896;23;20393;-80
2022/04/11 08:56:57;;;;;;;5.47;1.77;;;10.80;1.00;;;;;;6238829;22;20419;-81
2022/04/11 08:59:33;;;;;;;3.23;1.70;;;10.90;1.00;;;;;;6221537;22;20434;-80
2022/04/11 09:02:00;;;;;;;14.87;11.87;;;11.10;1.00;;;;;;6215534;22;20958;-80
2022/04/11 09:04:30;;;;;;;2.53;1.67;;;11.30;1.00;;;;;;6219181;23;20469;-75
2022/04/11 09:06:59;;;;;;;3.73;2.10;;;11.40;1.00;;;;;;6229842;22;20492;-80
2022/04/11 09:09:41;;;;;;;4.67;1.97;;;11.60;1.00;;;;;;6217640;22;20409;-80
2022/04/11 09:12:11;;;;;;;3.00;1.97;;;11.80;1.00;;;;;;6204779;22;20411;-76
2022/04/11 09:14:40;;;;;;;3.70;1.20;;;11.90;1.00;;;;;;6216016;22;21116;-79
2022/04/11 09:17:11;;;;;;;3.53;1.20;;;11.90;1.00;;;;;;6214589;22;20432;-79
2022/04/11 09:19:40;;;;;;;5.37;2.07;;;12.10;1.00;;;;;;6215209;22;20429;-77
2022/04/11 09:22:06;;;;;;;4.93;1.23;;;12.30;1.00;;;;;;6213287;22;20549;-77
2022/04/11 09:24:43;;;;;;;;;;;;;;;;;;;;;
2022/04/11 09:27:23;;;;;;;3.37;1.00;;;12.80;1.00;;;;;;6219817;22;36558;-80
2022/04/11 09:30:01;;;;;;;1.90;1.00;;;13.80;1.00;;;;;;6219830;22;20476;-78
2022/04/11 09:32:44;;;;;;;5.03;1.63;;;15.50;1.00;;;;;;6218244;22;20441;-77
2022/04/11 09:35:10;;;;;;;2.93;2.13;;;17.20;1.00;;;;;;6243907;22;20550;-80
2022/04/11 09:37:51;;;;;;;4.57;1.43;;;18.20;1.00;;;;;;6246237;22;20408;-76
2022/04/11 09:40:22;;;;;;;6.37;1.63;;;19.10;1.00;;;;;;6248789;22;20440;-76
2022/04/11 09:42:57;;;;;;;5.00;1.20;;;19.70;1.00;;;;;;6244361;22;20440;-79
2022/04/11 09:45:26;;;;;;;2.33;1.30;;;20.20;1.00;;;;;;6233482;22;20459;-78
2022/04/11 09:48:01;;;;;;;6.33;2.20;;;20.80;1.00;;;;;;6251654;22;20762;-79
2022/04/11 09:50:31;;;;;;;4.90;1.67;;;21.10;1.00;;;;;;6250414;22;20451;-79
2022/04/11 09:53:13;;;;;;;6.77;2.00;;;21.10;1.00;;;;;;6250074;22;21122;-78
2022/04/11 09:55:40;;;;;;;4.10;2.17;;;20.80;1.00;;;;;;6246359;22;20427;-81
2022/04/11 09:58:07;;;;;;;3.80;1.70;;;21.40;1.00;;;;;;6262166;22;20814;-78
2022/04/11 10:00:43;;;;;;;2.93;1.70;;;21.50;1.00;;;;;;6260329;22;20421;-78
2022/04/11 10:03:10;;;;;;;4.40;1.50;;;21.60;1.00;;;;;;6264395;22;20424;-79
2022/04/11 10:05:41;;;;;;;3.57;1.40;;;21.90;1.00;;;;;;6261774;22;20993;-78
2022/04/11 10:08:11;;;;;;;3.93;1.57;;;21.00;1.00;;;;;;6258207;22;20435;-79
2022/04/11 10:10:51;;;;;;;2.57;1.80;;;21.10;1.00;;;;;;6255093;22;20445;-82
2022/04/11 10:13:49;;;;;;;2.43;1.57;;;21.10;1.00;;;;;;6244935;22;20463;-83
2022/04/11 10:16:33;;;;;;;3.40;1.60;;;19.80;1.00;;;;;;6241608;22;20416;-80
2022/04/11 10:19:02;;;;;;;3.37;1.37;;;17.80;1.00;;;;;;6253636;22;20658;-80
2022/04/11 10:21:29;;;;;;;3.50;2.47;;;17.90;1.00;;;;;;6260508;22;21565;-80
2022/04/11 10:24:10;;;;;;;2.70;1.57;;;17.50;1.00;;;;;;6249214;22;20432;-82
2022/04/11 10:26:55;;;;;;;4.73;2.37;;;16.30;1.00;;;;;;6237231;22;20483;-80
2022/04/11 10:29:32;;;;;;;3.30;1.63;;;16.10;1.00;;;;;;6258549;22;21701;-83
2022/04/11 10:32:15;;;;;;;6.03;3.00;;;17.70;1.00;;;;;;6230027;22;20429;-79
2022/04/11 10:34:52;;;;;;;3.40;2.30;;;18.10;1.00;;;;;;6223971;22;20397;-83
2022/04/11 10:37:28;;;;;;;4.77;1.80;;;17.00;1.00;;;;;;6230931;22;20389;-86
2022/04/11 10:40:29;;;;;;;3.97;2.80;;;16.70;1.00;;;;;;6215128;22;21139;-80
2022/04/11 10:43:29;;;;;;;6.63;2.17;;;16.60;1.00;;;;;;6215188;22;20775;-80
2022/04/11 10:46:00;;;;;;;2.97;1.60;;;17.00;1.00;;;;;;6226133;22;20455;-79
2022/04/11 10:49:05;;;;;;;6.67;2.40;;;18.70;1.00;;;;;;6228146;22;20425;-80
2022/04/11 10:51:32;;;;;;;2.70;1.53;;;19.50;1.00;;;;;;6230135;22;20389;-87
2022/04/11 10:54:21;;;;;;;4.53;1.63;;;21.20;1.00;;;;;;6219598;22;20486;-78
2022/04/11 10:56:53;;;;;;;2.43;1.40;;;22.60;1.00;;;;;;6217542;23;20437;-81
2022/04/11 10:59:28;;;;;;;2.73;2.00;;;21.90;1.00;;;;;;6219468;22;20400;-80
2022/04/11 11:01:57;;;;;;;3.20;1.77;;;20.50;1.00;;;;;;6210527;22;20457;-82
2022/04/11 11:04:32;;;;;;;8.73;2.93;;;19.60;1.00;;;;;;6217439;22;20465;-79
2022/04/11 11:07:23;;;;;;;6.20;1.90;;;18.50;1.00;;;;;;6220289;22;20380;-78
2022/04/11 11:09:56;;;;;;;4.43;2.10;;;19.20;1.00;;;;;;6226361;22;20516;-82
2022/04/11 11:12:24;;;;;;;8.20;1.97;;;19.50;1.00;;;;;;6218816;22;20452;-78
2022/04/11 11:14:50;;;;;;;2.70;1.97;;;18.90;1.00;;;;;;6227672;22;20464;-83
2022/04/11 11:17:20;;;;;;;6.30;2.40;;;18.00;1.00;;;;;;6225495;22;20429;-83
2022/04/11 11:20:22;;;;;;;3.60;2.30;;;17.60;1.00;;;;;;6220066;22;20394;-80
2022/04/11 11:23:34;;;;;;;4.80;2.20;;;16.80;1.00;;;;;;6198639;22;20562;-81
2022/04/11 11:29:52;;;;;;;3.37;1.83;;;15.40;1.00;;;;;;6143177;22;20439;-81
2022/04/11 11:32:20;;;;;;;5.43;2.17;;;15.10;1.00;;;;;;6211734;22;20393;-79
2022/04/11 11:34:52;;;;;;;6.20;1.47;;;15.10;1.00;;;;;;6208311;22;20405;-80
2022/04/11 11:37:30;;;;;;;9.53;2.77;;;15.00;1.00;;;;;;6221709;22;20419;-81
2022/04/11 11:40:11;;;;;;;2.20;1.30;;;14.80;1.00;;;;;;6210042;22;20492;-81
2022/04/11 11:42:39;;;;;;;2.97;1.77;;;14.70;1.00;;;;;;6213079;22;20457;-80
2022/04/11 11:45:07;;;;;;;8.10;2.40;;;14.50;1.00;;;;;;6211918;22;20499;-80
2022/04/11 11:47:39;;;;;;;3.13;1.80;;;14.40;1.00;;;;;;6208739;22;21213;-80
2022/04/11 11:50:08;;;;;;;2.33;1.63;;;14.40;1.00;;;;;;6201147;22;20437;-80
2022/04/11 11:52:41;;;;;;;6.20;2.53;;;14.60;1.00;;;;;;6216084;22;20483;-78
2022/04/11 11:55:08;;;;;;;3.50;2.17;;;14.80;1.00;;;;;;6212773;22;20504;-82
2022/04/11 11:57:42;;;;;;;7.17;2.60;;;15.10;1.00;;;;;;6212426;22;20440;-82
2022/04/11 12:00:14;;;;;;;8.23;2.13;;;16.20;1.00;;;;;;6231181;22;20405;-81
2022/04/11 12:05:28;;;;;;;3.00;1.50;;;19.50;1.00;;;;;;6219495;22;20416;-80
2022/04/11 12:08:33;;;;;;;;;;;;;;;;;;;;;
2022/04/11 12:11:03;;;;;;;3.20;1.70;;;17.50;1.00;;;;;;6226893;22;50819;-79
2022/04/11 12:13:43;;;;;;;3.60;1.80;;;18.30;1.00;;;;;;6216117;22;20394;-79
2022/04/11 12:19:04;;;;;;;5.73;2.43;;;19.90;1.00;;;;;;6222159;22;20543;-83
2022/04/11 12:24:37;;;;;;;5.60;1.80;;;24.60;1.00;;;;;;6198277;22;20821;-81
2022/04/11 12:27:14;;;;;;;3.57;1.57;;;26.90;1.00;;;;;;6221951;22;20466;-81
2022/04/11 12:29:49;;;;;;;6.97;2.20;;;26.90;1.00;;;;;;6187896;22;20381;-81
2022/04/11 12:32:32;;;;;;;2.03;1.50;;;25.00;1.00;;;;;;6237431;22;20401;-81
2022/04/11 12:36:04;;;;;;;3.03;1.60;;;23.10;1.00;;;;;;6177483;22;20413;-80
2022/04/11 12:38:53;;;;;;;5.30;2.60;;;21.50;1.00;;;;;;6202341;22;20433;-80
2022/04/11 12:41:52;;;;;;;5.10;2.13;;;21.80;1.00;;;;;;6218522;22;20381;-83
2022/04/11 12:44:33;;;;;;;6.53;2.47;;;23.60;1.00;;;;;;6223575;22;20393;-83
2022/04/11 13:33:42;;;;;;;3.47;2.00;;;20.70;1.00;;;;;;6137478;22;20423;-80
2022/04/11 13:37:04;;;;;;;4.20;2.13;;;20.80;1.00;;;;;;6162406;22;20421;-81
2022/04/11 13:40:04;;;;;;;4.53;2.67;;;19.70;1.00;;;;;;6186381;22;20512;-79
2022/04/11 13:42:52;;;;;;;3.70;2.70;;;19.10;1.00;;;;;;6182923;23;20409;-79
2022/04/11 13:49:21;;;;;;;2.30;2.03;;;16.90;1.00;;;;;;6134054;23;20445;-78
2022/04/11 13:51:51;;;;;;;3.40;2.20;;;16.50;1.00;;;;;;6173727;23;20425;-80
2022/04/11 13:54:41;;;;;;;3.83;2.23;;;16.00;1.00;;;;;;6173558;23;20433;-80
2022/04/11 13:57:13;;;;;;;2.87;2.20;;;15.70;1.00;;;;;;6128754;23;20437;-78
2022/04/11 13:59:44;;;;;;;4.60;2.50;;;16.60;1.00;;;;;;6098578;23;20400;-78
2022/04/11 14:02:12;;;;;;;2.73;1.80;;;19.80;1.00;;;;;;6214261;22;20432;-79
2022/04/11 14:04:42;;;;;;;4.17;2.63;;;21.00;1.00;;;;;;6271670;22;20400;-79
2022/04/11 14:07:10;;;;;;;4.50;2.13;;;20.00;1.00;;;;;;6258861;22;20441;-79
2022/04/11 14:09:42;;;;;;;4.10;2.40;;;18.90;1.00;;;;;;6262156;22;20387;-80
2022/04/11 14:12:09;;;;;;;5.17;3.30;;;18.10;1.00;;;;;;6276853;22;20419;-80
2022/04/11 14:14:40;;;;;;;4.60;2.50;;;17.60;1.00;;;;;;6279379;22;20415;-81
2022/04/11 14:17:10;;;;;;;4.60;3.30;;;17.30;1.00;;;;;;6254157;22;21639;-79
2022/04/11 14:19:46;;;;;;;3.70;2.00;;;17.00;1.00;;;;;;6255342;22;20390;-81
2022/04/11 14:22:14;;;;;;;3.60;2.87;;;16.70;1.00;;;;;;6272449;22;20498;-80
2022/04/11 14:49:44;;;;;;;4.03;2.40;;;16.00;1.00;;;;;;6236397;22;20531;-81
2022/04/11 15:05:43;;;;;;;4.97;3.13;;;15.00;1.00;;;;;;5977423;22;20384;-79
2022/04/11 15:08:13;;;;;;;5.10;2.73;;;14.90;1.00;;;;;;6220564;22;20439;-82
2022/04/11 15:10:43;;;;;;;3.30;2.60;;;14.70;1.00;;;;;;6203231;22;20993;-81
2022/04/11 15:13:21;;;;;;;3.60;2.63;;;14.70;1.00;;;;;;6239681;22;20525;-82
2022/04/11 15:15:50;;;;;;;3.67;2.77;;;14.70;1.00;;;;;;6245824;22;20388;-80
2022/04/11 15:18:31;;;;;;;3.10;2.40;;;14.90;1.00;;;;;;6222741;22;20436;-81
2022/04/11 15:21:02;;;;;;;3.10;2.70;;;15.10;1.00;;;;;;6231279;22;21020;-80
2022/04/11 15:23:33;;;;;;;5.20;2.97;;;15.10;1.00;;;;;;6245031;22;20491;-79
2022/04/11 15:25:59;;;;;;;5.27;3.70;;;15.00;1.00;;;;;;6238013;22;20697;-77
2022/04/11 15:28:29;;;;;;;3.20;2.90;;;14.80;1.00;;;;;;6248300;22;20429;-77